Agia Marina — SX5375 — position and weather

sailwx.info

Track history (hours):
 
Tides and Currents Weather Stations Pressure Air Temp Water Temp Dewpoint Dewpoint Depression Visibility Wind Speed Wind Dir Waves Ship Positions

Agia Marina

Last reported at 2016-Aug-22 12:15 UTC. Time now 2016-Aug-26 06:48 UTC.
Position N 37°15' E 025°33'.

Length 59 m; draft 2.5 m.

Type: Cargo ship. MMSI: 237042500.

Date/timePositionNaut miles runAvg speedWind from/ knotsBaromVisibWave heightAir tempDewpointWater temp
2016-Aug-22 12:15N 37°15' E 025°33'4 6.0
2016-Aug-22 11:33N 37°12' E 025°29'6 6.3
2016-Aug-22 10:33N 37°08' E 025°23'2 2.0
2016-Aug-22 09:33N 37°06' E 025°22'0 0.1
2016-Aug-22 08:33N 37°06' E 025°22'0 0.0
2016-Aug-22 07:33N 37°06' E 025°22'0 0.0
2016-Aug-22 06:33N 37°06' E 025°22'0 0.0
2016-Aug-22 05:33N 37°06' E 025°22'0 0.5
2016-Aug-22 04:33N 37°06' E 025°22'0 0.0
2016-Aug-22 03:33N 37°06' E 025°22'1 0.6
2016-Aug-22 02:33N 37°06' E 025°22'0 0.0
2016-Aug-22 01:33N 37°06' E 025°22'0 0.0
2016-Aug-22 00:33N 37°06' E 025°22'0 0.0
2016-Aug-21 23:33N 37°06' E 025°22'0 0.0
2016-Aug-21 22:33N 37°06' E 025°22'0 0.0
2016-Aug-21 21:33N 37°06' E 025°22'0 0.0
2016-Aug-21 20:33N 37°06' E 025°22'0 0.0
2016-Aug-21 19:33N 37°06' E 025°22'0 0.0
2016-Aug-21 18:33N 37°06' E 025°22'5 4.8
2016-Aug-21 17:33N 37°10' E 025°18'11 1.1
2016-Aug-21 07:33N 37°06' E 025°05'6 5.9
2016-Aug-21 06:33N 37°07' E 024°58'45 0.9
2016-Aug-19 04:15N 37°40' E 024°19'0 0.0
2016-Aug-19 03:33N 37°40' E 024°19'0 0.0
2016-Aug-19 02:33N 37°40' E 024°19'0 0.0
2016-Aug-19 01:33N 37°40' E 024°19'0 0.0
2016-Aug-19 00:33N 37°40' E 024°19'0 0.0
2016-Aug-18 23:33N 37°40' E 024°19'0 0.0
2016-Aug-18 22:33N 37°40' E 024°19'0 0.0
2016-Aug-18 21:33N 37°40' E 024°19'6 6.4
2016-Aug-18 20:33N 37°39' E 024°11'8 7.7
2016-Aug-18 19:33N 37°38' E 024°02'8 7.6
2016-Aug-18 18:33N 37°39' E 023°52'6 6.4
2016-Aug-18 17:33N 37°40' E 023°44'6 6.0
2016-Aug-18 16:33N 37°45' E 023°40'6 6.4
2016-Aug-18 15:33N 37°50' E 023°36'6 6.4
2016-Aug-18 14:34N 37°57' E 023°35'5 4.7
2016-Aug-18 13:33N 38°01' E 023°35'1 0.7
2016-Aug-18 12:33N 38°02' E 023°36'0 0.0
2016-Aug-18 11:33N 38°02' E 023°36'0 0.0
2016-Aug-18 10:34N 38°02' E 023°36'0 0.0
2016-Aug-18 09:33N 38°02' E 023°36'0 0.0
2016-Aug-18 08:33N 38°02' E 023°36'0 0.0
2016-Aug-18 07:34N 38°02' E 023°36'0 0.0
2016-Aug-18 06:34N 38°02' E 023°36'0 0.0
2016-Aug-18 05:34N 38°02' E 023°36'0 0.0
2016-Aug-18 04:33N 38°02' E 023°36'0 0.0
2016-Aug-18 03:33N 38°02' E 023°36'0 0.0
2016-Aug-18 02:33N 38°02' E 023°36'0 0.0
2016-Aug-18 01:33N 38°02' E 023°36'0 0.0
2016-Aug-18 00:33N 38°02' E 023°36'0 0.0
2016-Aug-17 23:33N 38°02' E 023°36'0 0.0
2016-Aug-17 22:33N 38°02' E 023°36'0 0.0
2016-Aug-17 21:33N 38°02' E 023°36'0 0.0
2016-Aug-17 20:33N 38°02' E 023°36'0 0.0
2016-Aug-17 19:34N 38°02' E 023°36'0 0.0
2016-Aug-17 18:33N 38°02' E 023°36'0 0.0
2016-Aug-17 17:33N 38°02' E 023°36'0 0.0
2016-Aug-17 16:33N 38°02' E 023°36'0 0.0
2016-Aug-17 15:33N 38°02' E 023°36'0 0.0
2016-Aug-17 14:33N 38°02' E 023°36'0 0.0
2016-Aug-17 13:33N 38°02' E 023°36'0 0.0
2016-Aug-17 12:33N 38°02' E 023°36'0 0.0
2016-Aug-17 11:33N 38°02' E 023°36'0 0.0
2016-Aug-17 10:33N 38°02' E 023°36'0 0.0
2016-Aug-17 09:33N 38°02' E 023°36'0 0.0
2016-Aug-17 08:33N 38°02' E 023°36'0 0.0
2016-Aug-17 07:33N 38°02' E 023°36'0 0.0
2016-Aug-17 06:34N 38°02' E 023°36'0 0.0
2016-Aug-17 05:33N 38°02' E 023°36'0 0.0
2016-Aug-17 04:33N 38°02' E 023°36'0 0.0
2016-Aug-17 03:33N 38°02' E 023°36'0 0.0
2016-Aug-17 02:33N 38°02' E 023°36'0 0.0
2016-Aug-17 01:33N 38°02' E 023°36'0 0.0
2016-Aug-17 00:33N 38°02' E 023°36'0 0.0
2016-Aug-16 23:33N 38°02' E 023°36'0 0.0
2016-Aug-16 22:33N 38°02' E 023°36'0 0.0
2016-Aug-16 21:33N 38°02' E 023°36'0 0.0
2016-Aug-16 20:33N 38°02' E 023°36'0 0.0
2016-Aug-16 19:34N 38°02' E 023°36'0 0.0
2016-Aug-16 18:34N 38°02' E 023°36'0 0.0
2016-Aug-16 17:33N 38°02' E 023°36'0 0.0
2016-Aug-16 16:33N 38°02' E 023°36'0 0.0
2016-Aug-16 15:33N 38°02' E 023°36'0 0.0
2016-Aug-16 14:33N 38°02' E 023°36'0 0.0
2016-Aug-16 13:33N 38°02' E 023°36'0 0.0
2016-Aug-16 12:33N 38°02' E 023°36'0 0.0
2016-Aug-16 11:33N 38°02' E 023°36'0 0.0
2016-Aug-16 10:33N 38°02' E 023°36'0 0.0
2016-Aug-16 09:33N 38°02' E 023°36'0 0.0
2016-Aug-16 08:33N 38°02' E 023°36'0 0.0
2016-Aug-16 07:32N 38°02' E 023°36'0 0.0
2016-Aug-16 04:33N 38°02' E 023°36'0 0.0
2016-Aug-16 03:33N 38°02' E 023°36'0 0.0
2016-Aug-16 02:33N 38°02' E 023°36'0 0.0
2016-Aug-16 01:33N 38°02' E 023°36'0 0.0
2016-Aug-16 00:33N 38°02' E 023°36'0 0.0
2016-Aug-15 23:34N 38°02' E 023°36'0 0.0
2016-Aug-15 22:33N 38°02' E 023°36'0 0.0
2016-Aug-15 21:33N 38°02' E 023°36'0 0.0
2016-Aug-15 19:33N 38°02' E 023°36'0 0.0
2016-Aug-15 18:33N 38°02' E 023°36'0 0.0
2016-Aug-15 17:33N 38°02' E 023°36'0 0.0
2016-Aug-15 16:33N 38°02' E 023°36'0 0.0
2016-Aug-15 15:33N 38°02' E 023°36'0 0.0
2016-Aug-15 14:33N 38°02' E 023°36'0 0.0
2016-Aug-15 13:33N 38°02' E 023°36'0 0.0
2016-Aug-15 12:33N 38°02' E 023°36'0 0.0
2016-Aug-15 11:33N 38°02' E 023°36'0 0.0
2016-Aug-15 10:33N 38°02' E 023°36'0 0.0
2016-Aug-15 09:33N 38°02' E 023°36'0 0.0
2016-Aug-15 08:33N 38°02' E 023°36'0 0.0
2016-Aug-15 07:33N 38°02' E 023°36'0 0.0
2016-Aug-15 06:33N 38°02' E 023°36'0 0.0
2016-Aug-15 04:33N 38°02' E 023°36'0 0.0
2016-Aug-15 03:33N 38°02' E 023°36'0 0.0
2016-Aug-15 02:33N 38°02' E 023°36'0 0.0
2016-Aug-15 01:33N 38°02' E 023°36'0 0.0
2016-Aug-15 00:33N 38°02' E 023°36'0 0.0
2016-Aug-14 23:33N 38°02' E 023°36'0 0.0
2016-Aug-14 22:33N 38°02' E 023°36'0 0.0
2016-Aug-14 21:33N 38°02' E 023°36'0 0.0
2016-Aug-14 20:33N 38°02' E 023°36'0 0.0
2016-Aug-14 19:33N 38°02' E 023°36'0 0.0
2016-Aug-14 18:33N 38°02' E 023°36'0 0.0
2016-Aug-14 17:33N 38°02' E 023°36'0 0.0
2016-Aug-14 16:33N 38°02' E 023°36'0 0.0
2016-Aug-14 15:33N 38°02' E 023°36'0 0.0
2016-Aug-14 14:33N 38°02' E 023°36'0 0.0
2016-Aug-14 13:33N 38°02' E 023°36'0 0.0
2016-Aug-14 12:33N 38°02' E 023°36'0 0.0
2016-Aug-14 11:33N 38°02' E 023°36'0 0.0
2016-Aug-14 10:33N 38°02' E 023°36'0 0.0
2016-Aug-14 09:33N 38°02' E 023°36'0 0.0
2016-Aug-14 08:33N 38°02' E 023°36'0 0.0
2016-Aug-14 07:33N 38°02' E 023°36'0 0.0
2016-Aug-14 06:33N 38°02' E 023°36'0 0.0
2016-Aug-14 04:33N 38°02' E 023°36'0 0.0
2016-Aug-14 03:33N 38°02' E 023°36'0 0.0
2016-Aug-14 02:33N 38°02' E 023°36'0 0.0
2016-Aug-14 01:33N 38°02' E 023°36'0 0.0
2016-Aug-14 00:33N 38°02' E 023°36'0 0.0
2016-Aug-13 23:33N 38°02' E 023°36'0 0.0
2016-Aug-13 22:34N 38°02' E 023°36'0 0.0
2016-Aug-13 21:34N 38°02' E 023°36'0 0.0
2016-Aug-13 20:33N 38°02' E 023°36'0 0.0
2016-Aug-13 19:33N 38°02' E 023°36'0 0.0
2016-Aug-13 18:33N 38°02' E 023°36'0 0.0
2016-Aug-13 17:33N 38°02' E 023°36'0 0.0
2016-Aug-13 16:33N 38°02' E 023°36'0 0.0
2016-Aug-13 15:33N 38°02' E 023°36'0 0.0
2016-Aug-13 14:33N 38°02' E 023°36'0 0.0
2016-Aug-13 13:33N 38°02' E 023°36'0 0.0
2016-Aug-13 12:33N 38°02' E 023°36'0 0.0
2016-Aug-13 11:34N 38°02' E 023°36'0 0.0
2016-Aug-13 10:33N 38°02' E 023°36'0 0.0
2016-Aug-13 09:33N 38°02' E 023°36'0 0.0
2016-Aug-13 08:33N 38°02' E 023°36'0 0.0
2016-Aug-13 07:33N 38°02' E 023°36'0 0.0
2016-Aug-13 06:34N 38°02' E 023°36'0 0.0
2016-Aug-13 05:34N 38°02' E 023°36'0 0.0
2016-Aug-13 04:33N 38°02' E 023°36'0 0.0
2016-Aug-13 03:34N 38°02' E 023°36'0 0.0
2016-Aug-13 02:34N 38°02' E 023°36'0 0.0
2016-Aug-13 01:33N 38°02' E 023°36'0 0.0
2016-Aug-13 00:33N 38°02' E 023°36'0 0.0
2016-Aug-12 23:33N 38°02' E 023°36'0 0.0
2016-Aug-12 22:33N 38°02' E 023°36'0 0.0
2016-Aug-12 21:33N 38°02' E 023°36'0 0.0
2016-Aug-12 20:33N 38°02' E 023°36'0 0.0
2016-Aug-12 19:33N 38°02' E 023°36'0 0.0
2016-Aug-12 18:33N 38°02' E 023°36'0 0.0
2016-Aug-12 17:33N 38°02' E 023°36'0 0.0
2016-Aug-12 16:33N 38°02' E 023°36'0 0.0
2016-Aug-12 15:33N 38°02' E 023°36'0 0.0
2016-Aug-12 14:33N 38°02' E 023°36'0 0.0
2016-Aug-12 13:33N 38°02' E 023°36'0 0.0
2016-Aug-12 12:33N 38°02' E 023°36'  
Track history (hours):
 
Tides and Currents Weather Stations Pressure Air Temp Water Temp Dewpoint Dewpoint Depression Visibility Wind Speed Wind Dir Waves Ship Positions

Agia Marina

Last reported at 2016-Aug-22 12:15 UTC. Time now 2016-Aug-26 06:48 UTC.
Position N 37°15' E 025°33'.

Length 59 m; draft 2.5 m.

Type: Cargo ship. MMSI: 237042500.

Date/timePositionNaut miles runAvg speedWind from/ knotsBaromVisibWave heightAir tempDewpointWater temp
2016-Aug-22 12:15N 37°15' E 025°33'4 6.0
2016-Aug-22 11:33N 37°12' E 025°29'6 6.3
2016-Aug-22 10:33N 37°08' E 025°23'2 2.0
2016-Aug-22 09:33N 37°06' E 025°22'0 0.1
2016-Aug-22 08:33N 37°06' E 025°22'0 0.0
2016-Aug-22 07:33N 37°06' E 025°22'0 0.0
2016-Aug-22 06:33N 37°06' E 025°22'0 0.0
2016-Aug-22 05:33N 37°06' E 025°22'0 0.5
2016-Aug-22 04:33N 37°06' E 025°22'0 0.0
2016-Aug-22 03:33N 37°06' E 025°22'1 0.6
2016-Aug-22 02:33N 37°06' E 025°22'0 0.0
2016-Aug-22 01:33N 37°06' E 025°22'0 0.0
2016-Aug-22 00:33N 37°06' E 025°22'0 0.0
2016-Aug-21 23:33N 37°06' E 025°22'0 0.0
2016-Aug-21 22:33N 37°06' E 025°22'0 0.0
2016-Aug-21 21:33N 37°06' E 025°22'0 0.0
2016-Aug-21 20:33N 37°06' E 025°22'0 0.0
2016-Aug-21 19:33N 37°06' E 025°22'0 0.0
2016-Aug-21 18:33N 37°06' E 025°22'5 4.8
2016-Aug-21 17:33N 37°10' E 025°18'11 1.1
2016-Aug-21 07:33N 37°06' E 025°05'6 5.9
2016-Aug-21 06:33N 37°07' E 024°58'45 0.9
2016-Aug-19 04:15N 37°40' E 024°19'0 0.0
2016-Aug-19 03:33N 37°40' E 024°19'0 0.0
2016-Aug-19 02:33N 37°40' E 024°19'0 0.0
2016-Aug-19 01:33N 37°40' E 024°19'0 0.0
2016-Aug-19 00:33N 37°40' E 024°19'0 0.0
2016-Aug-18 23:33N 37°40' E 024°19'0 0.0
2016-Aug-18 22:33N 37°40' E 024°19'0 0.0
2016-Aug-18 21:33N 37°40' E 024°19'6 6.4
2016-Aug-18 20:33N 37°39' E 024°11'8 7.7
2016-Aug-18 19:33N 37°38' E 024°02'8 7.6
2016-Aug-18 18:33N 37°39' E 023°52'6 6.4
2016-Aug-18 17:33N 37°40' E 023°44'6 6.0
2016-Aug-18 16:33N 37°45' E 023°40'6 6.4
2016-Aug-18 15:33N 37°50' E 023°36'6 6.4
2016-Aug-18 14:34N 37°57' E 023°35'5 4.7
2016-Aug-18 13:33N 38°01' E 023°35'1 0.7
2016-Aug-18 12:33N 38°02' E 023°36'0 0.0
2016-Aug-18 11:33N 38°02' E 023°36'0 0.0
2016-Aug-18 10:34N 38°02' E 023°36'0 0.0
2016-Aug-18 09:33N 38°02' E 023°36'0 0.0
2016-Aug-18 08:33N 38°02' E 023°36'0 0.0
2016-Aug-18 07:34N 38°02' E 023°36'0 0.0
2016-Aug-18 06:34N 38°02' E 023°36'0 0.0
2016-Aug-18 05:34N 38°02' E 023°36'0 0.0
2016-Aug-18 04:33N 38°02' E 023°36'0 0.0
2016-Aug-18 03:33N 38°02' E 023°36'0 0.0
2016-Aug-18 02:33N 38°02' E 023°36'0 0.0
2016-Aug-18 01:33N 38°02' E 023°36'0 0.0
2016-Aug-18 00:33N 38°02' E 023°36'0 0.0
2016-Aug-17 23:33N 38°02' E 023°36'0 0.0
2016-Aug-17 22:33N 38°02' E 023°36'0 0.0
2016-Aug-17 21:33N 38°02' E 023°36'0 0.0
2016-Aug-17 20:33N 38°02' E 023°36'0 0.0
2016-Aug-17 19:34N 38°02' E 023°36'0 0.0
2016-Aug-17 18:33N 38°02' E 023°36'0 0.0
2016-Aug-17 17:33N 38°02' E 023°36'0 0.0
2016-Aug-17 16:33N 38°02' E 023°36'0 0.0
2016-Aug-17 15:33N 38°02' E 023°36'0 0.0
2016-Aug-17 14:33N 38°02' E 023°36'0 0.0
2016-Aug-17 13:33N 38°02' E 023°36'0 0.0
2016-Aug-17 12:33N 38°02' E 023°36'0 0.0
2016-Aug-17 11:33N 38°02' E 023°36'0 0.0
2016-Aug-17 10:33N 38°02' E 023°36'0 0.0
2016-Aug-17 09:33N 38°02' E 023°36'0 0.0
2016-Aug-17 08:33N 38°02' E 023°36'0 0.0
2016-Aug-17 07:33N 38°02' E 023°36'0 0.0
2016-Aug-17 06:34N 38°02' E 023°36'0 0.0
2016-Aug-17 05:33N 38°02' E 023°36'0 0.0
2016-Aug-17 04:33N 38°02' E 023°36'0 0.0
2016-Aug-17 03:33N 38°02' E 023°36'0 0.0
2016-Aug-17 02:33N 38°02' E 023°36'0 0.0
2016-Aug-17 01:33N 38°02' E 023°36'0 0.0
2016-Aug-17 00:33N 38°02' E 023°36'0 0.0
2016-Aug-16 23:33N 38°02' E 023°36'0 0.0
2016-Aug-16 22:33N 38°02' E 023°36'0 0.0
2016-Aug-16 21:33N 38°02' E 023°36'0 0.0
2016-Aug-16 20:33N 38°02' E 023°36'0 0.0
2016-Aug-16 19:34N 38°02' E 023°36'0 0.0
2016-Aug-16 18:34N 38°02' E 023°36'0 0.0
2016-Aug-16 17:33N 38°02' E 023°36'0 0.0
2016-Aug-16 16:33N 38°02' E 023°36'0 0.0
2016-Aug-16 15:33N 38°02' E 023°36'0 0.0
2016-Aug-16 14:33N 38°02' E 023°36'0 0.0
2016-Aug-16 13:33N 38°02' E 023°36'0 0.0
2016-Aug-16 12:33N 38°02' E 023°36'0 0.0
2016-Aug-16 11:33N 38°02' E 023°36'0 0.0
2016-Aug-16 10:33N 38°02' E 023°36'0 0.0
2016-Aug-16 09:33N 38°02' E 023°36'0 0.0
2016-Aug-16 08:33N 38°02' E 023°36'0 0.0
2016-Aug-16 07:32N 38°02' E 023°36'0 0.0
2016-Aug-16 04:33N 38°02' E 023°36'0 0.0
2016-Aug-16 03:33N 38°02' E 023°36'0 0.0
2016-Aug-16 02:33N 38°02' E 023°36'0 0.0
2016-Aug-16 01:33N 38°02' E 023°36'0 0.0
2016-Aug-16 00:33N 38°02' E 023°36'0 0.0
2016-Aug-15 23:34N 38°02' E 023°36'0 0.0
2016-Aug-15 22:33N 38°02' E 023°36'0 0.0
2016-Aug-15 21:33N 38°02' E 023°36'0 0.0
2016-Aug-15 19:33N 38°02' E 023°36'0 0.0
2016-Aug-15 18:33N 38°02' E 023°36'0 0.0
2016-Aug-15 17:33N 38°02' E 023°36'0 0.0
2016-Aug-15 16:33N 38°02' E 023°36'0 0.0
2016-Aug-15 15:33N 38°02' E 023°36'0 0.0
2016-Aug-15 14:33N 38°02' E 023°36'0 0.0
2016-Aug-15 13:33N 38°02' E 023°36'0 0.0
2016-Aug-15 12:33N 38°02' E 023°36'0 0.0
2016-Aug-15 11:33N 38°02' E 023°36'0 0.0
2016-Aug-15 10:33N 38°02' E 023°36'0 0.0
2016-Aug-15 09:33N 38°02' E 023°36'0 0.0
2016-Aug-15 08:33N 38°02' E 023°36'0 0.0
2016-Aug-15 07:33N 38°02' E 023°36'0 0.0
2016-Aug-15 06:33N 38°02' E 023°36'0 0.0
2016-Aug-15 04:33N 38°02' E 023°36'0 0.0
2016-Aug-15 03:33N 38°02' E 023°36'0 0.0
2016-Aug-15 02:33N 38°02' E 023°36'0 0.0
2016-Aug-15 01:33N 38°02' E 023°36'0 0.0
2016-Aug-15 00:33N 38°02' E 023°36'0 0.0
2016-Aug-14 23:33N 38°02' E 023°36'0 0.0
2016-Aug-14 22:33N 38°02' E 023°36'0 0.0
2016-Aug-14 21:33N 38°02' E 023°36'0 0.0
2016-Aug-14 20:33N 38°02' E 023°36'0 0.0
2016-Aug-14 19:33N 38°02' E 023°36'0 0.0
2016-Aug-14 18:33N 38°02' E 023°36'0 0.0
2016-Aug-14 17:33N 38°02' E 023°36'0 0.0
2016-Aug-14 16:33N 38°02' E 023°36'0 0.0
2016-Aug-14 15:33N 38°02' E 023°36'0 0.0
2016-Aug-14 14:33N 38°02' E 023°36'0 0.0
2016-Aug-14 13:33N 38°02' E 023°36'0 0.0
2016-Aug-14 12:33N 38°02' E 023°36'0 0.0
2016-Aug-14 11:33N 38°02' E 023°36'0 0.0
2016-Aug-14 10:33N 38°02' E 023°36'0 0.0
2016-Aug-14 09:33N 38°02' E 023°36'0 0.0
2016-Aug-14 08:33N 38°02' E 023°36'0 0.0
2016-Aug-14 07:33N 38°02' E 023°36'0 0.0
2016-Aug-14 06:33N 38°02' E 023°36'0 0.0
2016-Aug-14 04:33N 38°02' E 023°36'0 0.0
2016-Aug-14 03:33N 38°02' E 023°36'0 0.0
2016-Aug-14 02:33N 38°02' E 023°36'0 0.0
2016-Aug-14 01:33N 38°02' E 023°36'0 0.0
2016-Aug-14 00:33N 38°02' E 023°36'0 0.0
2016-Aug-13 23:33N 38°02' E 023°36'0 0.0
2016-Aug-13 22:34N 38°02' E 023°36'0 0.0
2016-Aug-13 21:34N 38°02' E 023°36'0 0.0
2016-Aug-13 20:33N 38°02' E 023°36'0 0.0
2016-Aug-13 19:33N 38°02' E 023°36'0 0.0
2016-Aug-13 18:33N 38°02' E 023°36'0 0.0
2016-Aug-13 17:33N 38°02' E 023°36'0 0.0
2016-Aug-13 16:33N 38°02' E 023°36'0 0.0
2016-Aug-13 15:33N 38°02' E 023°36'0 0.0
2016-Aug-13 14:33N 38°02' E 023°36'0 0.0
2016-Aug-13 13:33N 38°02' E 023°36'0 0.0
2016-Aug-13 12:33N 38°02' E 023°36'0 0.0
2016-Aug-13 11:34N 38°02' E 023°36'0 0.0
2016-Aug-13 10:33N 38°02' E 023°36'0 0.0
2016-Aug-13 09:33N 38°02' E 023°36'0 0.0
2016-Aug-13 08:33N 38°02' E 023°36'0 0.0
2016-Aug-13 07:33N 38°02' E 023°36'0 0.0
2016-Aug-13 06:34N 38°02' E 023°36'0 0.0
2016-Aug-13 05:34N 38°02' E 023°36'0 0.0
2016-Aug-13 04:33N 38°02' E 023°36'0 0.0
2016-Aug-13 03:34N 38°02' E 023°36'0 0.0
2016-Aug-13 02:34N 38°02' E 023°36'0 0.0
2016-Aug-13 01:33N 38°02' E 023°36'0 0.0
2016-Aug-13 00:33N 38°02' E 023°36'0 0.0
2016-Aug-12 23:33N 38°02' E 023°36'0 0.0
2016-Aug-12 22:33N 38°02' E 023°36'0 0.0
2016-Aug-12 21:33N 38°02' E 023°36'0 0.0
2016-Aug-12 20:33N 38°02' E 023°36'0 0.0
2016-Aug-12 19:33N 38°02' E 023°36'0 0.0
2016-Aug-12 18:33N 38°02' E 023°36'0 0.0
2016-Aug-12 17:33N 38°02' E 023°36'0 0.0
2016-Aug-12 16:33N 38°02' E 023°36'0 0.0
2016-Aug-12 15:33N 38°02' E 023°36'0 0.0
2016-Aug-12 14:33N 38°02' E 023°36'0 0.0
2016-Aug-12 13:33N 38°02' E 023°36'0 0.0
2016-Aug-12 12:33N 38°02' E 023°36'  

Dump ship's entire track history